createdAt,value
2018-12-07T00:02:18.713Z,2.10
2018-12-07T00:04:48.431Z,2.20
2018-12-07T00:07:18.067Z,2.20
2018-12-07T00:09:47.833Z,2.20
2018-12-07T00:12:17.623Z,2.20
2018-12-07T00:14:47.278Z,2.20
2018-12-07T00:17:17.383Z,2.30
2018-12-07T00:19:48.118Z,2.40
2018-12-07T00:22:17.822Z,2.40
2018-12-07T00:24:47.515Z,2.50
2018-12-07T00:27:17.162Z,2.50
2018-12-07T00:29:46.850Z,2.50
2018-12-07T00:32:16.628Z,2.40
2018-12-07T00:34:46.170Z,2.40
2018-12-07T00:37:15.793Z,2.30
2018-12-07T00:39:45.333Z,2.30
2018-12-07T00:42:15.061Z,2.20
2018-12-07T00:44:44.817Z,2.20
2018-12-07T00:47:14.574Z,2.20
2018-12-07T00:49:44.132Z,2.20
2018-12-07T00:52:13.812Z,2.30
2018-12-07T00:54:43.449Z,2.30
2018-12-07T00:57:13.066Z,2.40
2018-12-07T00:59:42.707Z,2.20
2018-12-07T01:02:12.322Z,2.30
2018-12-07T01:04:41.974Z,2.30
2018-12-07T01:07:11.663Z,2.30
2018-12-07T01:09:41.289Z,2.30
2018-12-07T01:12:10.895Z,2.20
2018-12-07T01:14:40.577Z,2.20
2018-12-07T01:17:10.389Z,2.30
2018-12-07T01:19:40.231Z,2.30
2018-12-07T01:22:10.020Z,2.30
2018-12-07T01:24:39.646Z,2.30
2018-12-07T01:27:09.337Z,2.30
2018-12-07T01:29:39.117Z,2.30
2018-12-07T01:32:08.727Z,2.20
2018-12-07T01:34:38.255Z,2.10
2018-12-07T01:37:07.872Z,1.90
2018-12-07T01:39:37.468Z,1.90
2018-12-07T01:42:07.275Z,1.90
2018-12-07T01:44:36.913Z,1.90
2018-12-07T01:47:06.696Z,2.00
2018-12-07T01:49:36.316Z,2.00
2018-12-07T01:52:05.942Z,2.10
2018-12-07T01:54:35.514Z,2.20
2018-12-07T01:57:05.324Z,2.20
2018-12-07T01:59:35.055Z,2.20
2018-12-07T02:02:04.764Z,2.30
2018-12-07T02:04:34.472Z,2.20
2018-12-07T02:07:04.189Z,2.30
2018-12-07T02:09:33.958Z,2.30
2018-12-07T02:12:03.801Z,2.30
2018-12-07T02:14:33.477Z,2.30
2018-12-07T02:17:03.309Z,2.40
2018-12-07T02:19:33.031Z,2.30
2018-12-07T02:22:02.810Z,2.30
2018-12-07T02:24:32.622Z,2.40
2018-12-07T02:27:02.473Z,2.50
2018-12-07T02:29:32.282Z,2.50
2018-12-07T02:32:01.869Z,2.60
2018-12-07T02:34:31.658Z,2.60
2018-12-07T02:37:01.333Z,2.50
2018-12-07T02:39:30.869Z,2.50
2018-12-07T02:42:00.588Z,2.50
2018-12-07T02:44:30.128Z,2.50
2018-12-07T02:46:59.806Z,2.40
2018-12-07T02:49:29.428Z,2.30
2018-12-07T02:51:59.315Z,2.30
2018-12-07T02:54:28.947Z,2.30
2018-12-07T02:56:58.744Z,2.40
2018-12-07T02:59:28.394Z,2.50
2018-12-07T03:01:57.872Z,2.50
2018-12-07T03:04:27.521Z,2.50
2018-12-07T03:06:57.134Z,2.40
2018-12-07T03:09:26.779Z,2.40
2018-12-07T03:11:56.582Z,2.30
2018-12-07T03:14:26.444Z,2.40
2018-12-07T03:16:56.022Z,2.40
2018-12-07T03:19:25.808Z,2.50
2018-12-07T03:21:55.351Z,2.50
2018-12-07T03:24:25.123Z,2.60
2018-12-07T03:26:54.838Z,2.70
2018-12-07T03:29:24.669Z,2.80
2018-12-07T03:31:54.870Z,2.80
2018-12-07T03:34:24.641Z,2.80
2018-12-07T03:36:54.302Z,2.80
2018-12-07T03:39:23.917Z,2.80
2018-12-07T03:41:53.538Z,2.70
2018-12-07T03:44:23.262Z,2.70
2018-12-07T03:46:52.865Z,2.80
2018-12-07T03:49:22.494Z,2.70
2018-12-07T03:51:52.242Z,2.50
2018-12-07T03:54:22.069Z,2.40
2018-12-07T03:56:51.859Z,2.30
2018-12-07T03:59:21.413Z,2.30
2018-12-07T04:01:51.196Z,2.30
2018-12-07T04:04:20.975Z,2.30
2018-12-07T04:06:50.642Z,2.20
2018-12-07T04:09:20.206Z,2.20
2018-12-07T04:11:50.014Z,2.10
2018-12-07T04:14:19.669Z,2.10
2018-12-07T04:16:49.453Z,2.10
2018-12-07T04:19:19.072Z,2.20
2018-12-07T04:21:48.545Z,2.20
2018-12-07T04:24:18.167Z,2.30
2018-12-07T04:26:47.912Z,2.30
2018-12-07T04:29:17.765Z,2.40
2018-12-07T04:31:47.989Z,2.50
2018-12-07T04:34:17.558Z,2.50
2018-12-07T04:36:47.323Z,2.60
2018-12-07T04:39:17.736Z,2.60
2018-12-07T04:41:47.422Z,2.60
2018-12-07T04:44:17.327Z,2.70
2018-12-07T04:46:47.012Z,2.70
2018-12-07T04:49:16.686Z,2.70
2018-12-07T04:51:46.228Z,2.70
2018-12-07T04:54:16.098Z,2.70
2018-12-07T04:56:45.890Z,2.70
2018-12-07T04:59:15.706Z,2.60
2018-12-07T05:01:45.725Z,2.50
2018-12-07T05:04:15.418Z,2.50
2018-12-07T05:06:45.064Z,2.50
2018-12-07T05:09:14.706Z,2.40
2018-12-07T05:11:44.479Z,2.40
2018-12-07T05:14:14.418Z,2.30
2018-12-07T05:16:44.128Z,2.30
2018-12-07T05:19:13.851Z,2.20
2018-12-07T05:21:43.445Z,2.20
2018-12-07T05:24:13.118Z,2.20
2018-12-07T05:26:42.721Z,2.20
2018-12-07T05:29:12.397Z,2.20
2018-12-07T05:31:41.971Z,2.10
2018-12-07T05:34:11.746Z,2.10
2018-12-07T05:36:41.309Z,2.10
2018-12-07T05:39:10.992Z,2.00
2018-12-07T05:41:40.617Z,1.90
2018-12-07T05:44:10.790Z,1.90
2018-12-07T05:46:40.398Z,2.00
2018-12-07T05:49:10.047Z,2.00
2018-12-07T05:51:39.646Z,1.90
2018-12-07T05:54:09.443Z,1.90
2018-12-07T05:56:39.669Z,1.90
2018-12-07T05:59:09.374Z,1.80
2018-12-07T06:01:39.348Z,1.80
2018-12-07T06:04:13.196Z,1.70
2018-12-07T06:06:43.616Z,1.70
2018-12-07T06:09:13.785Z,1.70
2018-12-07T06:11:43.474Z,1.70
2018-12-07T06:14:13.078Z,1.70
2018-12-07T06:16:42.878Z,1.70
2018-12-07T06:19:12.498Z,1.70
2018-12-07T06:21:42.121Z,1.70
2018-12-07T06:24:11.670Z,1.70
2018-12-07T06:26:41.565Z,1.70
2018-12-07T06:29:11.225Z,1.70
2018-12-07T06:31:40.813Z,1.60
2018-12-07T06:34:10.342Z,1.60
2018-12-07T06:36:40.340Z,1.60
2018-12-07T06:39:11.382Z,1.60
2018-12-07T06:41:42.391Z,1.60
2018-12-07T06:44:12.313Z,1.60
2018-12-07T06:46:41.864Z,1.60
2018-12-07T06:49:12.585Z,1.70
2018-12-07T06:51:43.322Z,1.60
2018-12-07T06:54:12.997Z,1.70
2018-12-07T06:56:42.802Z,1.60
2018-12-07T06:59:12.361Z,1.60
2018-12-07T07:01:41.969Z,1.70
2018-12-07T07:04:11.565Z,1.70
2018-12-07T07:06:41.285Z,1.70
2018-12-07T07:09:10.959Z,1.70
2018-12-07T07:11:40.689Z,1.70
2018-12-07T07:14:11.146Z,1.80
2018-12-07T07:16:41.448Z,1.80
2018-12-07T07:19:11.047Z,1.80
2018-12-07T07:21:40.846Z,1.80
2018-12-07T07:24:10.521Z,1.80
2018-12-07T07:26:39.977Z,1.90
2018-12-07T07:29:09.555Z,1.90
2018-12-07T07:31:43.372Z,1.90
2018-12-07T07:34:11.005Z,1.90
2018-12-07T07:36:41.139Z,1.90
2018-12-07T07:39:10.878Z,2.00
2018-12-07T07:41:40.661Z,2.00
2018-12-07T07:44:10.011Z,2.10
2018-12-07T07:46:40.282Z,2.10
2018-12-07T07:49:11.290Z,2.20
2018-12-07T07:51:41.231Z,2.20
2018-12-07T07:54:13.218Z,2.20
2018-12-07T07:56:42.953Z,2.20
2018-12-07T07:59:12.620Z,2.20
2018-12-07T08:01:42.261Z,2.30
2018-12-07T08:04:12.106Z,2.30
2018-12-07T08:06:42.158Z,2.40
2018-12-07T08:09:13.399Z,2.50
2018-12-07T08:11:43.153Z,2.60
2018-12-07T08:14:12.808Z,2.60
2018-12-07T08:16:42.573Z,2.60
2018-12-07T08:19:12.119Z,2.50
2018-12-07T08:21:42.029Z,2.60
2018-12-07T08:24:11.676Z,2.70
2018-12-07T08:26:41.313Z,2.70
2018-12-07T08:29:11.005Z,2.60
2018-12-07T08:31:40.886Z,2.70
2018-12-07T08:34:10.779Z,2.80
2018-12-07T08:36:40.713Z,2.80
2018-12-07T08:39:11.511Z,2.80
2018-12-07T08:41:42.055Z,2.90
2018-12-07T08:44:11.814Z,3.00
2018-12-07T08:46:41.617Z,3.10
2018-12-07T08:49:11.249Z,3.10
2018-12-07T08:51:40.847Z,3.00
2018-12-07T08:54:10.549Z,3.10
2018-12-07T08:56:40.254Z,3.10
2018-12-07T08:59:10.025Z,3.00
2018-12-07T09:01:39.555Z,3.10
2018-12-07T09:04:09.378Z,3.20
2018-12-07T09:06:39.166Z,3.30
2018-12-07T09:09:09.509Z,3.20
2018-12-07T09:11:39.292Z,3.30
2018-12-07T09:14:09.014Z,3.30
2018-12-07T09:16:38.736Z,3.40
2018-12-07T09:19:08.462Z,3.40
2018-12-07T09:21:38.169Z,3.50
2018-12-07T09:24:07.770Z,3.50
2018-12-07T09:26:37.605Z,3.50
2018-12-07T09:29:07.250Z,3.60
2018-12-07T09:31:37.070Z,3.70
2018-12-07T09:34:06.776Z,3.70
2018-12-07T09:36:36.582Z,3.70
2018-12-07T09:39:09.605Z,3.70
2018-12-07T09:41:39.399Z,3.80
2018-12-07T09:44:09.121Z,3.90
2018-12-07T09:46:38.697Z,4.00
2018-12-07T09:49:08.503Z,3.90
2018-12-07T09:51:38.366Z,4.20
2018-12-07T09:54:08.134Z,4.30
2018-12-07T09:56:37.993Z,4.30
2018-12-07T09:59:07.753Z,4.20
2018-12-07T10:01:37.310Z,4.30
2018-12-07T10:04:07.092Z,4.20
2018-12-07T10:06:36.933Z,4.20
2018-12-07T10:09:08.467Z,4.10
2018-12-07T10:11:38.101Z,4.20
2018-12-07T10:14:07.696Z,4.20
2018-12-07T10:16:37.413Z,4.20
2018-12-07T10:19:07.168Z,4.30
2018-12-07T10:21:36.816Z,4.20
2018-12-07T10:24:06.429Z,4.40
2018-12-07T10:26:36.061Z,4.30
2018-12-07T10:29:05.748Z,4.30
2018-12-07T10:31:35.449Z,4.50
2018-12-07T10:34:05.220Z,4.50
2018-12-07T10:36:34.757Z,4.60
2018-12-07T10:39:05.922Z,4.60
2018-12-07T10:41:35.490Z,4.60
2018-12-07T10:44:05.117Z,4.60
2018-12-07T10:46:34.948Z,4.60
2018-12-07T10:49:04.633Z,4.80
2018-12-07T10:51:34.537Z,4.70
2018-12-07T10:54:04.289Z,4.70
2018-12-07T10:56:34.034Z,4.90
2018-12-07T10:59:03.689Z,4.90
2018-12-07T11:01:38.498Z,4.80
2018-12-07T11:04:13.196Z,4.90
2018-12-07T11:06:52.157Z,4.90
2018-12-07T11:09:26.876Z,5.00
2018-12-07T11:12:01.806Z,5.20
2018-12-07T11:14:36.534Z,5.30
2018-12-07T11:17:11.261Z,5.50
2018-12-07T11:19:46.026Z,5.60
2018-12-07T11:22:20.681Z,5.60
2018-12-07T11:24:55.542Z,6.00
2018-12-07T11:27:30.474Z,6.00
2018-12-07T11:30:07.249Z,5.80
2018-12-07T11:32:42.109Z,5.90
2018-12-07T11:35:15.065Z,5.60
2018-12-07T11:37:44.882Z,5.40
2018-12-07T11:40:14.618Z,5.50
2018-12-07T11:42:44.334Z,5.60
2018-12-07T11:45:13.900Z,5.70
2018-12-07T11:47:43.693Z,5.40
2018-12-07T11:50:13.657Z,5.60
2018-12-07T11:52:43.429Z,5.80
2018-12-07T11:55:13.182Z,6.10
2018-12-07T11:57:42.728Z,6.10
2018-12-07T12:00:12.373Z,6.50
2018-12-07T12:02:41.977Z,6.20
2018-12-07T12:05:11.677Z,6.80
2018-12-07T12:07:41.274Z,7.10
2018-12-07T12:10:11.022Z,7.30
2018-12-07T12:12:40.602Z,7.20
2018-12-07T12:15:10.494Z,7.30
2018-12-07T12:17:40.058Z,7.40
2018-12-07T12:20:10.114Z,7.40
2018-12-07T12:22:39.757Z,7.30
2018-12-07T12:25:09.485Z,7.10
2018-12-07T12:27:38.978Z,6.90
2018-12-07T12:30:09.269Z,6.70
2018-12-07T12:32:39.420Z,6.60
2018-12-07T12:35:10.045Z,6.70
2018-12-07T12:37:39.862Z,6.90
2018-12-07T12:40:09.637Z,6.80
2018-12-07T12:42:39.404Z,6.80
2018-12-07T12:45:09.073Z,6.20
2018-12-07T12:47:38.864Z,6.30
2018-12-07T12:50:12.795Z,6.40
2018-12-07T12:52:42.446Z,6.20
2018-12-07T12:55:12.549Z,6.30
2018-12-07T12:57:42.171Z,6.50
2018-12-07T13:00:11.786Z,6.40
2018-12-07T13:02:41.531Z,6.30
2018-12-07T13:05:11.271Z,6.70
2018-12-07T13:07:41.069Z,6.80
2018-12-07T13:10:10.689Z,6.60
2018-12-07T13:12:40.397Z,6.80
2018-12-07T13:15:10.066Z,6.90
2018-12-07T13:17:39.718Z,7.10
2018-12-07T13:20:09.849Z,6.90
2018-12-07T13:22:40.381Z,6.80
2018-12-07T13:25:10.173Z,6.60
2018-12-07T13:27:39.781Z,6.50
2018-12-07T13:30:09.579Z,6.20
2018-12-07T13:32:39.381Z,6.20
2018-12-07T13:35:09.009Z,6.30
2018-12-07T13:37:38.893Z,6.20
2018-12-07T13:40:08.750Z,6.30
2018-12-07T13:42:38.547Z,6.40
2018-12-07T13:45:09.310Z,6.60
2018-12-07T13:47:39.372Z,6.70
2018-12-07T13:50:14.290Z,6.80
2018-12-07T13:52:44.310Z,6.60
2018-12-07T13:55:14.163Z,6.20
2018-12-07T13:57:43.882Z,6.20
2018-12-07T14:00:13.676Z,6.20
2018-12-07T14:02:43.459Z,6.30
2018-12-07T14:05:13.295Z,6.40
2018-12-07T14:07:42.939Z,6.40
2018-12-07T14:10:12.795Z,6.50
2018-12-07T14:12:42.769Z,6.40
2018-12-07T14:15:12.696Z,6.40
2018-12-07T14:17:42.415Z,6.30
2018-12-07T14:20:12.292Z,6.20
2018-12-07T14:22:42.341Z,6.20
2018-12-07T14:25:12.236Z,6.10
2018-12-07T14:27:41.973Z,6.10
2018-12-07T14:30:12.396Z,6.00
2018-12-07T14:32:42.098Z,6.00
2018-12-07T14:35:12.240Z,6.00
2018-12-07T14:37:42.252Z,6.00
2018-12-07T14:40:12.037Z,6.00
2018-12-07T14:42:41.755Z,6.00
2018-12-07T14:45:11.486Z,5.90
2018-12-07T14:47:41.085Z,6.00
2018-12-07T14:50:10.889Z,6.00
2018-12-07T14:52:40.622Z,6.00
2018-12-07T14:55:10.341Z,6.00
2018-12-07T14:57:40.293Z,6.00
2018-12-07T15:00:10.452Z,6.00
2018-12-07T15:02:40.359Z,6.00
2018-12-07T15:05:10.371Z,6.00
2018-12-07T15:07:40.395Z,6.10
2018-12-07T15:10:10.569Z,6.10
2018-12-07T15:12:40.546Z,6.20
2018-12-07T15:15:10.675Z,6.10
2018-12-07T15:17:40.285Z,6.00
2018-12-07T15:20:10.875Z,6.10
2018-12-07T15:22:40.736Z,6.20
2018-12-07T15:25:10.482Z,6.30
2018-12-07T15:27:40.304Z,6.30
2018-12-07T15:30:10.511Z,6.30
2018-12-07T15:32:40.217Z,6.20
2018-12-07T15:35:10.405Z,6.30
2018-12-07T15:37:40.152Z,6.30
2018-12-07T15:40:11.164Z,6.30
2018-12-07T15:42:41.025Z,6.40
2018-12-07T15:45:10.918Z,6.30
2018-12-07T15:47:40.568Z,6.30
2018-12-07T15:50:10.735Z,6.30
2018-12-07T15:52:40.353Z,6.30
2018-12-07T15:55:10.193Z,6.30
2018-12-07T15:57:39.924Z,6.40
2018-12-07T16:00:10.092Z,6.30
2018-12-07T16:02:39.700Z,6.30
2018-12-07T16:05:09.863Z,6.40
2018-12-07T16:07:39.720Z,6.40
2018-12-07T16:10:09.742Z,6.40
2018-12-07T16:12:39.539Z,6.40
2018-12-07T16:15:09.420Z,6.40
2018-12-07T16:17:39.224Z,6.40
2018-12-07T16:20:13.747Z,6.30
2018-12-07T16:22:43.465Z,6.40
2018-12-07T16:25:13.170Z,6.40
2018-12-07T16:27:43.148Z,6.30
2018-12-07T16:30:12.965Z,6.30
2018-12-07T16:32:42.951Z,6.30
2018-12-07T16:35:12.978Z,6.30
2018-12-07T16:37:42.869Z,6.30
2018-12-07T16:40:12.737Z,6.30
2018-12-07T16:42:42.818Z,6.30
2018-12-07T16:45:12.856Z,6.40
2018-12-07T16:47:42.930Z,6.30
2018-12-07T16:50:12.777Z,6.20
2018-12-07T16:52:47.317Z,6.30
2018-12-07T16:55:17.094Z,6.20
2018-12-07T16:57:46.916Z,6.30
2018-12-07T17:00:17.054Z,6.30
2018-12-07T17:02:46.792Z,6.40
2018-12-07T17:05:16.325Z,6.40
2018-12-07T17:07:47.908Z,6.40
2018-12-07T17:10:17.630Z,6.40
2018-12-07T17:12:47.663Z,6.30
2018-12-07T17:15:17.634Z,6.40
2018-12-07T17:17:47.426Z,6.40
2018-12-07T17:20:17.087Z,6.30
2018-12-07T17:22:47.092Z,6.30
2018-12-07T17:25:16.974Z,6.40
2018-12-07T17:27:46.692Z,6.40
2018-12-07T17:30:16.721Z,6.30
2018-12-07T17:32:46.628Z,6.20
2018-12-07T17:35:17.420Z,6.20
2018-12-07T17:37:46.985Z,6.30
2018-12-07T17:40:16.689Z,6.10
2018-12-07T17:42:46.611Z,6.10
2018-12-07T17:45:16.305Z,6.20
2018-12-07T17:47:46.017Z,6.20
2018-12-07T17:50:15.730Z,6.20
2018-12-07T17:52:45.415Z,6.10
2018-12-07T17:55:15.651Z,6.10
2018-12-07T17:57:45.379Z,6.20
2018-12-07T18:00:15.924Z,6.20
2018-12-07T18:02:45.866Z,6.30
2018-12-07T18:05:15.813Z,6.20
2018-12-07T18:07:45.732Z,6.30
2018-12-07T18:10:15.616Z,6.30
2018-12-07T18:12:45.538Z,6.40
2018-12-07T18:15:15.281Z,6.50
2018-12-07T18:17:45.001Z,6.50
2018-12-07T18:20:14.823Z,6.50
2018-12-07T18:22:44.621Z,6.50
2018-12-07T18:25:14.436Z,6.50
2018-12-07T18:27:44.300Z,6.50
2018-12-07T18:30:14.426Z,6.50
2018-12-07T18:32:44.391Z,6.50
2018-12-07T18:35:14.271Z,6.60
2018-12-07T18:37:44.313Z,6.60
2018-12-07T18:40:14.292Z,6.60
2018-12-07T18:42:44.236Z,6.60
2018-12-07T18:45:14.018Z,6.60
2018-12-07T18:47:44.228Z,6.60
2018-12-07T18:50:14.120Z,6.50
2018-12-07T18:52:44.013Z,6.60
2018-12-07T18:55:14.573Z,6.60
2018-12-07T18:57:44.561Z,6.60
2018-12-07T19:00:14.357Z,6.60
2018-12-07T19:02:44.437Z,6.70
2018-12-07T19:05:14.340Z,6.80
2018-12-07T19:07:44.037Z,6.80
2018-12-07T19:10:13.959Z,6.80
2018-12-07T19:12:43.945Z,6.70
2018-12-07T19:15:13.923Z,6.70
2018-12-07T19:17:43.678Z,6.70
2018-12-07T19:20:13.497Z,6.80
2018-12-07T19:22:43.500Z,6.70
2018-12-07T19:25:13.349Z,6.80
2018-12-07T19:27:43.034Z,6.80
2018-12-07T19:30:14.715Z,6.80
2018-12-07T19:32:44.897Z,6.80
2018-12-07T19:35:14.650Z,6.80
2018-12-07T19:37:44.921Z,6.80
2018-12-07T19:40:15.022Z,6.80
2018-12-07T19:42:44.981Z,6.70
2018-12-07T19:45:15.244Z,6.70
2018-12-07T19:47:45.432Z,6.60
2018-12-07T19:50:15.269Z,6.60
2018-12-07T19:52:44.899Z,6.60
2018-12-07T19:55:14.897Z,6.50
2018-12-07T19:57:44.838Z,6.60
2018-12-07T20:00:14.657Z,6.50
2018-12-07T20:02:44.812Z,6.50
2018-12-07T20:05:14.960Z,6.50
2018-12-07T20:07:44.733Z,6.50
2018-12-07T20:10:14.715Z,6.50
2018-12-07T20:12:44.504Z,6.50
2018-12-07T20:15:14.517Z,6.50
2018-12-07T20:17:44.218Z,6.50
2018-12-07T20:20:13.846Z,6.60
2018-12-07T20:22:43.608Z,6.50
2018-12-07T20:25:14.375Z,6.50
2018-12-07T20:27:44.726Z,6.60
2018-12-07T20:30:14.640Z,6.60
2018-12-07T20:32:44.505Z,6.60
2018-12-07T20:35:14.681Z,6.60
2018-12-07T20:37:44.512Z,6.60
2018-12-07T20:40:14.551Z,6.60
2018-12-07T20:42:44.466Z,6.60
2018-12-07T20:45:14.735Z,6.60
2018-12-07T20:47:44.441Z,6.70
2018-12-07T20:50:14.822Z,6.70
2018-12-07T20:52:45.109Z,6.70
2018-12-07T20:55:14.898Z,6.60
2018-12-07T20:57:44.706Z,6.70
2018-12-07T21:00:14.553Z,6.80
2018-12-07T21:02:44.437Z,6.80
2018-12-07T21:06:28.019Z,6.80
2018-12-07T21:09:22.294Z,6.80
2018-12-07T21:11:57.059Z,6.80
2018-12-07T21:14:49.255Z,6.80
2018-12-07T21:17:25.565Z,6.80
2018-12-07T21:20:30.119Z,6.80
2018-12-07T21:22:59.876Z,6.80
2018-12-07T21:25:29.915Z,6.70
2018-12-07T21:28:00.191Z,6.70
2018-12-07T21:30:53.088Z,6.60
2018-12-07T21:33:31.863Z,6.70
2018-12-07T21:36:36.445Z,6.70
2018-12-07T21:39:10.560Z,6.60
2018-12-07T21:41:40.333Z,6.70
2018-12-07T21:44:10.506Z,6.70
2018-12-07T21:46:40.332Z,6.80
2018-12-07T21:49:10.626Z,6.80
2018-12-07T21:52:49.678Z,6.80
2018-12-07T21:55:21.211Z,6.80
2018-12-07T21:57:51.527Z,6.80
2018-12-07T22:00:21.331Z,6.70
2018-12-07T22:02:51.079Z,6.70
2018-12-07T22:05:21.163Z,6.80
2018-12-07T22:07:51.083Z,6.60
2018-12-07T22:10:20.701Z,6.70
2018-12-07T22:12:50.342Z,6.70
2018-12-07T22:15:20.053Z,6.70
2018-12-07T22:17:49.848Z,6.70
2018-12-07T22:20:19.524Z,6.70
2018-12-07T22:22:49.321Z,6.70
2018-12-07T22:25:18.945Z,6.70
2018-12-07T22:27:48.633Z,6.60
2018-12-07T22:30:18.611Z,6.60
2018-12-07T22:32:48.585Z,6.60
2018-12-07T22:35:18.408Z,6.60
2018-12-07T22:37:48.408Z,6.60
2018-12-07T22:40:18.045Z,6.60
2018-12-07T22:42:47.565Z,6.60
2018-12-07T22:45:17.689Z,6.60
2018-12-07T22:47:47.490Z,6.60
2018-12-07T22:50:17.146Z,6.60
2018-12-07T22:52:46.744Z,6.60
2018-12-07T22:55:16.285Z,6.60
2018-12-07T22:57:45.984Z,6.60
2018-12-07T23:00:20.095Z,6.60
2018-12-07T23:02:49.780Z,6.60
2018-12-07T23:05:19.418Z,6.60
2018-12-07T23:07:49.049Z,6.60
2018-12-07T23:10:18.746Z,6.70
2018-12-07T23:12:48.366Z,6.70
2018-12-07T23:15:18.130Z,6.60
2018-12-07T23:17:47.836Z,6.60
2018-12-07T23:20:17.794Z,6.60
2018-12-07T23:22:49.103Z,6.70
2018-12-07T23:25:19.181Z,6.70
2018-12-07T23:27:48.934Z,6.60
2018-12-07T23:30:18.473Z,6.70
2018-12-07T23:32:48.078Z,6.70
2018-12-07T23:35:17.790Z,6.70
2018-12-07T23:37:47.495Z,6.70
2018-12-07T23:40:17.195Z,6.70
2018-12-07T23:42:47.085Z,6.70
2018-12-07T23:45:16.806Z,6.70
2018-12-07T23:47:46.439Z,6.70
2018-12-07T23:50:16.254Z,6.60
2018-12-07T23:52:45.846Z,6.60
2018-12-07T23:55:15.623Z,6.60
2018-12-07T23:57:45.493Z,6.60
